createdAt,value
2018-08-13T00:03:48.408Z,3.00
2018-08-13T00:08:52.070Z,2.50
2018-08-13T00:13:55.716Z,3.60
2018-08-13T00:18:59.399Z,2.60
2018-08-13T00:24:03.054Z,2.80
2018-08-13T00:29:06.671Z,1.80
2018-08-13T00:34:10.336Z,3.50
2018-08-13T00:39:14.422Z,2.60
2018-08-13T00:44:18.120Z,2.00
2018-08-13T00:49:21.884Z,2.20
2018-08-13T00:54:25.636Z,2.50
2018-08-13T00:59:29.272Z,2.75
2018-08-13T01:04:32.933Z,2.50
2018-08-13T01:09:36.587Z,1.80
2018-08-13T01:14:40.169Z,2.75
2018-08-13T01:19:43.784Z,2.20
2018-08-13T01:24:47.436Z,2.00
2018-08-13T01:29:50.991Z,2.00
2018-08-13T01:34:54.574Z,2.50
2018-08-13T01:39:58.635Z,3.00
2018-08-13T01:45:05.256Z,3.00
2018-08-13T01:50:10.661Z,2.40
2018-08-13T01:55:14.350Z,2.20
2018-08-13T02:00:17.959Z,2.00
2018-08-13T02:05:21.572Z,2.80
2018-08-13T02:10:25.225Z,3.20
2018-08-13T02:15:28.917Z,3.25
2018-08-13T02:20:32.624Z,3.40
2018-08-13T02:25:36.187Z,3.00
2018-08-13T02:35:49.082Z,2.80
2018-08-13T02:40:52.743Z,3.00
2018-08-13T02:45:56.416Z,3.75
2018-08-13T02:51:00.000Z,4.00
2018-08-13T02:56:03.690Z,3.00
2018-08-13T03:01:07.382Z,3.00
2018-08-13T03:06:11.054Z,3.25
2018-08-13T03:11:14.721Z,3.80
2018-08-13T03:16:18.314Z,3.25
2018-08-13T03:21:21.956Z,3.00
2018-08-13T03:26:25.845Z,4.00
2018-08-13T03:31:29.457Z,4.40
2018-08-13T03:36:33.188Z,4.60
2018-08-13T03:41:36.912Z,3.60
2018-08-13T03:46:40.593Z,4.20
2018-08-13T03:51:44.489Z,5.25
2018-08-13T03:56:48.209Z,5.75
2018-08-13T04:01:51.827Z,6.00
2018-08-13T04:06:54.447Z,6.00
2018-08-13T04:11:58.129Z,6.00
2018-08-13T04:17:03.512Z,5.20
2018-08-13T04:22:07.185Z,5.00
2018-08-13T04:27:10.810Z,6.00
2018-08-13T04:32:14.451Z,5.00
2018-08-13T04:37:18.085Z,4.40
2018-08-13T04:42:21.725Z,5.00
2018-08-13T04:47:26.020Z,5.50
2018-08-13T04:52:29.627Z,5.20
2018-08-13T04:57:33.398Z,5.25
2018-08-13T05:02:37.110Z,17.25
2018-08-13T05:07:40.828Z,16.40
2018-08-13T05:12:44.485Z,7.80
2018-08-13T05:17:48.120Z,5.25
2018-08-13T05:22:51.750Z,5.20
2018-08-13T05:27:55.364Z,6.50
2018-08-13T05:32:59.088Z,5.25
2018-08-13T05:38:02.684Z,4.00
2018-08-13T05:43:06.758Z,13.75
2018-08-13T05:48:10.555Z,18.25
2018-08-13T05:53:14.171Z,6.25
2018-08-13T05:58:17.785Z,5.60
2018-08-13T06:03:21.457Z,5.00
2018-08-13T06:08:25.080Z,6.00
2018-08-13T06:13:28.816Z,4.40
2018-08-13T06:18:32.555Z,5.00
2018-08-13T06:23:36.191Z,4.25
2018-08-13T06:28:39.844Z,4.00
2018-08-13T06:33:43.478Z,15.00
2018-08-13T06:38:47.145Z,7.40
2018-08-13T06:43:50.804Z,5.00
2018-08-13T06:48:55.122Z,5.50
2018-08-13T06:53:58.829Z,4.00
2018-08-13T06:59:02.448Z,4.25
2018-08-13T07:04:06.074Z,4.50
2018-08-13T07:09:11.065Z,4.80
2018-08-13T07:14:14.677Z,6.00
2018-08-13T07:19:18.362Z,6.25
2018-08-13T07:24:21.993Z,4.50
2018-08-13T07:29:25.661Z,5.20
2018-08-13T07:34:29.515Z,6.00
2018-08-13T07:39:33.185Z,4.50
2018-08-13T07:44:36.848Z,5.20
2018-08-13T07:49:40.472Z,4.75
2018-08-13T07:54:44.067Z,4.60
2018-08-13T07:59:47.789Z,5.00
2018-08-13T08:04:51.430Z,4.50
2018-08-13T08:09:54.992Z,5.00
2018-08-13T08:14:58.692Z,3.80
2018-08-13T08:20:02.448Z,3.40
2018-08-13T08:25:12.430Z,2.25
2018-08-13T08:30:16.109Z,2.80
2018-08-13T08:35:19.825Z,2.60
2018-08-13T08:40:23.535Z,3.00
2018-08-13T08:45:28.095Z,3.00
2018-08-13T08:50:31.850Z,3.50
2018-08-13T08:55:35.558Z,2.40
2018-08-13T09:00:39.227Z,2.25
2018-08-13T09:05:42.906Z,2.50
2018-08-13T09:10:46.529Z,3.00
2018-08-13T09:15:50.223Z,2.25
2018-08-13T09:21:04.927Z,2.00
2018-08-13T09:26:19.660Z,2.00
2018-08-13T09:31:34.401Z,2.00
2018-08-13T09:36:38.142Z,2.00
2018-08-13T09:41:41.717Z,3.00
2018-08-13T09:46:45.400Z,2.00
2018-08-13T09:51:48.984Z,3.00
2018-08-13T09:56:52.625Z,2.20
2018-08-13T10:01:56.330Z,2.00
2018-08-13T10:06:59.932Z,2.60
2018-08-13T10:12:03.706Z,2.00
2018-08-13T10:17:07.298Z,2.25
2018-08-13T10:22:10.900Z,2.75
2018-08-13T10:27:14.598Z,2.00
2018-08-13T10:32:18.190Z,2.25
2018-08-13T10:37:21.806Z,2.00
2018-08-13T10:42:25.432Z,2.20
2018-08-13T10:47:29.037Z,2.25
2018-08-13T10:52:32.711Z,2.40
2018-08-13T10:57:36.396Z,2.75
2018-08-13T11:02:40.017Z,3.00
2018-08-13T11:07:43.738Z,2.75
2018-08-13T11:12:47.434Z,2.60
2018-08-13T11:17:51.075Z,2.50
2018-08-13T11:22:54.779Z,2.40
2018-08-13T11:28:04.638Z,2.00
2018-08-13T11:33:08.303Z,3.50
2018-08-13T11:38:11.872Z,2.00
2018-08-13T11:43:15.519Z,2.75
2018-08-13T11:48:19.163Z,2.80
2018-08-13T11:53:22.845Z,3.00
2018-08-13T11:58:26.549Z,2.50
2018-08-13T12:03:30.538Z,2.40
2018-08-13T12:08:34.216Z,2.75
2018-08-13T12:13:37.871Z,2.00
2018-08-13T12:18:41.537Z,3.00
2018-08-13T12:23:45.143Z,2.25
2018-08-13T12:28:48.770Z,3.00
2018-08-13T12:33:52.530Z,2.00
2018-08-13T12:38:56.170Z,2.20
2018-08-13T12:43:59.870Z,2.40
2018-08-13T12:49:03.600Z,3.00
2018-08-13T12:54:07.436Z,2.00
2018-08-13T12:59:11.091Z,2.00
2018-08-13T13:04:14.790Z,2.75
2018-08-13T13:09:18.553Z,2.00
2018-08-13T13:19:37.608Z,2.00
2018-08-13T13:24:41.312Z,2.00
2018-08-13T13:29:45.004Z,2.80
2018-08-13T13:34:48.660Z,2.60
2018-08-13T13:39:52.402Z,2.00
2018-08-13T13:44:56.062Z,2.00
2018-08-13T13:49:59.789Z,2.00
2018-08-13T13:55:05.930Z,2.00
2018-08-13T14:00:20.551Z,2.00
2018-08-13T14:05:24.425Z,2.00
2018-08-13T14:10:28.202Z,1.25
2018-08-13T14:15:31.867Z,2.00
2018-08-13T14:20:35.627Z,1.75
2018-08-13T14:25:39.290Z,2.00
2018-08-13T14:30:43.075Z,2.00
2018-08-13T14:35:47.213Z,1.50
2018-08-13T14:40:51.256Z,1.40
2018-08-13T14:45:55.044Z,1.00
2018-08-13T14:50:58.757Z,1.60
2018-08-13T14:56:02.440Z,2.00
2018-08-13T15:01:06.069Z,2.00
2018-08-13T15:06:09.691Z,1.00
2018-08-13T15:11:13.554Z,1.25
2018-08-13T15:16:17.339Z,2.00
2018-08-13T15:21:21.565Z,1.50
2018-08-13T15:26:25.382Z,2.00
2018-08-13T15:31:29.048Z,2.00
2018-08-13T15:36:32.794Z,2.00
2018-08-13T15:41:36.511Z,2.00
2018-08-13T15:46:40.108Z,2.00
2018-08-13T15:51:43.880Z,2.00
2018-08-13T15:56:47.506Z,2.00
2018-08-13T16:01:51.124Z,1.00
2018-08-13T16:06:54.807Z,1.80
2018-08-13T16:11:58.481Z,3.00
2018-08-13T16:17:02.195Z,3.75
2018-08-13T16:22:06.083Z,3.40
2018-08-13T16:27:09.794Z,4.20
2018-08-13T16:32:14.988Z,4.25
2018-08-13T16:37:19.647Z,4.50
2018-08-13T16:42:24.241Z,4.75
2018-08-13T16:47:28.904Z,4.40
2018-08-13T16:52:33.406Z,3.00
2018-08-13T16:57:38.353Z,4.25
2018-08-13T17:02:42.204Z,4.25
2018-08-13T17:07:46.337Z,3.40
2018-08-13T17:12:51.541Z,2.60
2018-08-13T17:17:58.191Z,3.00
2018-08-13T17:23:03.218Z,1.40
2018-08-13T17:28:08.178Z,1.40
2018-08-13T17:33:13.019Z,3.00
2018-08-13T17:38:17.855Z,4.25
2018-08-13T17:43:23.099Z,3.50
2018-08-13T17:48:26.911Z,4.00
2018-08-13T17:53:31.483Z,4.60
2018-08-13T17:58:35.805Z,4.00
2018-08-13T18:03:40.750Z,7.25
2018-08-13T18:08:45.432Z,3.75
2018-08-13T18:13:51.324Z,2.60
2018-08-13T18:18:56.250Z,3.20
2018-08-13T18:24:00.994Z,3.20
2018-08-13T18:29:05.768Z,3.00
2018-08-13T18:34:10.748Z,4.00
2018-08-13T18:39:14.368Z,3.50
2018-08-13T18:44:17.966Z,2.40
2018-08-13T18:49:22.125Z,4.25
2018-08-13T18:54:25.772Z,4.00
2018-08-13T18:59:29.461Z,3.00
2018-08-13T19:04:33.136Z,13.40
2018-08-13T19:09:36.770Z,5.20
2018-08-13T19:14:40.465Z,5.25
2018-08-13T19:19:44.225Z,5.75
2018-08-13T19:24:49.059Z,4.75
2018-08-13T19:29:52.684Z,4.00
2018-08-13T19:34:56.339Z,4.50
2018-08-13T19:40:00.010Z,4.80
2018-08-13T19:45:04.223Z,5.00
2018-08-13T19:50:09.288Z,5.00
2018-08-13T19:55:14.266Z,5.17
2018-08-13T20:00:21.526Z,3.50
2018-08-13T20:05:26.444Z,4.00
2018-08-13T20:10:30.147Z,5.00
2018-08-13T20:15:33.877Z,6.00
2018-08-13T20:20:37.679Z,4.80
2018-08-13T20:25:41.376Z,4.00
2018-08-13T20:30:45.036Z,5.00
2018-08-13T20:35:48.745Z,4.60
2018-08-13T20:40:52.453Z,4.80
2018-08-13T20:45:56.230Z,3.00
2018-08-13T20:50:59.795Z,4.00
2018-08-13T20:56:03.493Z,4.75
2018-08-13T21:01:07.313Z,3.25
2018-08-13T21:06:11.022Z,3.75
2018-08-13T21:11:14.741Z,4.60
2018-08-13T21:16:18.648Z,3.75
2018-08-13T21:21:22.332Z,4.00
2018-08-13T21:26:26.172Z,4.40
2018-08-13T21:31:29.844Z,3.60
2018-08-13T21:36:33.578Z,4.25
2018-08-13T21:41:37.387Z,4.75
2018-08-13T21:46:41.069Z,3.50
2018-08-13T21:51:44.730Z,3.00
2018-08-13T21:56:48.470Z,2.00
2018-08-13T22:01:54.412Z,2.75
2018-08-13T22:06:58.042Z,3.75
2018-08-13T22:12:01.843Z,3.00
2018-08-13T22:17:06.256Z,3.00
2018-08-13T22:22:09.986Z,3.00
2018-08-13T22:27:13.822Z,3.80
2018-08-13T22:32:17.518Z,3.00
2018-08-13T22:37:21.098Z,3.20
2018-08-13T22:42:24.880Z,2.20
2018-08-13T22:47:28.542Z,3.00
2018-08-13T22:52:32.279Z,2.25
2018-08-13T22:57:36.043Z,3.00
2018-08-13T23:02:39.651Z,2.50
2018-08-13T23:07:43.318Z,2.50
2018-08-13T23:12:48.330Z,2.80
2018-08-13T23:17:58.734Z,2.00
2018-08-13T23:23:03.265Z,3.25
2018-08-13T23:28:10.936Z,3.20
2018-08-13T23:33:14.582Z,3.00
2018-08-13T23:38:18.241Z,3.00
2018-08-13T23:43:21.937Z,2.60
2018-08-13T23:48:25.609Z,2.00
2018-08-13T23:53:29.353Z,3.50
2018-08-13T23:58:33.057Z,2.00
